Time;durP1;ratioP1;P1;durP2;ratioP2;P2;SDS_P1;SDS_P2;PMS_P1;PMS_P2;Temp;Humidity;BMP_temperature;BMP_pressure;BME280_temperature;BME280_humidity;BME280_pressure;Samples;Min_cycle;Max_cycle;Signal;HPM_P1;HPM_P2
2021/01/31 00:01:24;;;;;;;74.88;32.25;;;-3.40;97.70;;;;;;5068377;28;20048;-83
2021/01/31 00:03:50;;;;;;;72.05;30.98;;;-3.40;97.70;;;;;;5049731;28;20040;-82
2021/01/31 00:06:18;;;;;;;75.57;35.25;;;-3.40;97.70;;;;;;5057654;28;20061;-83
2021/01/31 00:08:44;;;;;;;74.82;32.20;;;-3.50;97.70;;;;;;5050193;28;20158;-83
2021/01/31 00:11:10;;;;;;;70.68;31.50;;;-3.50;97.70;;;;;;5081686;28;20096;-83
2021/01/31 00:13:37;;;;;;;75.30;32.17;;;-3.50;97.80;;;;;;5069204;28;20453;-82
2021/01/31 00:16:03;;;;;;;72.47;32.83;;;-3.50;97.80;;;;;;5058573;28;20190;-83
2021/01/31 00:18:29;;;;;;;78.82;32.70;;;-3.50;97.70;;;;;;5065460;28;20038;-82
2021/01/31 00:20:57;;;;;;;78.20;33.10;;;-3.60;98.00;;;;;;5064372;28;20033;-82
2021/01/31 00:23:24;;;;;;;80.00;33.10;;;-3.60;97.70;;;;;;5080285;28;20053;-82
2021/01/31 00:25:50;;;;;;;69.60;32.08;;;-3.60;97.70;;;;;;5063787;28;20053;-82
2021/01/31 00:28:18;;;;;;;81.00;34.03;;;-3.60;97.80;;;;;;5064327;28;20034;-83
2021/01/31 00:30:46;;;;;;;72.32;31.23;;;-3.60;97.80;;;;;;5079962;28;20065;-83
2021/01/31 00:33:29;;;;;;;76.95;31.55;;;-3.60;97.80;;;;;;5066883;28;20032;-82
2021/01/31 00:35:56;;;;;;;76.00;31.92;;;-3.60;97.90;;;;;;5054834;28;20065;-83
2021/01/31 00:38:24;;;;;;;83.18;34.25;;;-3.70;97.90;;;;;;5076358;28;20092;-83
2021/01/31 00:40:52;;;;;;;72.68;31.90;;;-3.60;97.90;;;;;;5058810;28;20131;-82
2021/01/31 00:43:42;;;;;;;78.90;33.42;;;-3.70;97.90;;;;;;5067007;28;20040;-82
2021/01/31 00:46:08;;;;;;;73.72;30.73;;;-3.60;98.00;;;;;;5061188;28;20070;-82
2021/01/31 00:48:34;;;;;;;80.05;34.30;;;-3.60;98.00;;;;;;5085180;28;20028;-82
2021/01/31 00:50:59;;;;;;;81.28;32.42;;;-3.60;98.00;;;;;;5078578;28;20052;-83
2021/01/31 00:53:26;;;;;;;86.28;32.97;;;-3.50;98.00;;;;;;5068005;28;20135;-83
2021/01/31 00:55:52;;;;;;;90.53;35.80;;;-3.60;98.00;;;;;;5068294;28;20059;-83
2021/01/31 00:58:23;;;;;;;89.35;34.70;;;-3.60;98.10;;;;;;5081457;28;20028;-84
2021/01/31 01:00:48;;;;;;;90.07;35.83;;;-3.60;98.10;;;;;;5081438;28;20051;-82
2021/01/31 01:03:14;;;;;;;90.22;36.67;;;-3.60;98.10;;;;;;5063748;28;20049;-82
2021/01/31 01:05:41;;;;;;;90.63;34.70;;;-3.60;98.10;;;;;;5088258;28;20041;-82
2021/01/31 01:08:07;;;;;;;104.35;39.28;;;-3.60;98.10;;;;;;5037287;28;20091;-82
2021/01/31 01:10:34;;;;;;;92.70;36.15;;;-3.60;98.20;;;;;;5061710;28;20041;-82
2021/01/31 01:13:19;;;;;;;87.13;34.83;;;-3.60;98.10;;;;;;5078889;28;20068;-83
2021/01/31 01:15:45;;;;;;;81.05;35.45;;;-3.70;98.10;;;;;;5064446;28;20041;-82
2021/01/31 01:18:10;;;;;;;78.47;34.72;;;-3.70;98.00;;;;;;5060835;28;20052;-82
2021/01/31 01:20:36;;;;;;;95.45;36.22;;;-3.70;98.00;;;;;;5078288;28;20071;-82
2021/01/31 01:23:02;;;;;;;96.13;37.03;;;-3.80;98.00;;;;;;5069818;28;20041;-82
2021/01/31 01:25:28;;;;;;;94.20;34.88;;;-3.80;98.00;;;;;;5083141;28;20048;-82
2021/01/31 01:28:04;;;;;;;86.22;36.22;;;-3.80;98.00;;;;;;5059116;28;20057;-82
2021/01/31 01:30:31;;;;;;;82.65;34.92;;;-3.80;98.00;;;;;;5060247;28;20036;-82
2021/01/31 01:32:58;;;;;;;85.45;33.88;;;-3.80;98.00;;;;;;5059365;28;20041;-82
2021/01/31 01:35:25;;;;;;;89.45;35.25;;;-3.80;98.00;;;;;;5074177;28;20037;-82
2021/01/31 01:37:51;;;;;;;90.07;35.58;;;-3.80;98.00;;;;;;5060062;28;20341;-82
2021/01/31 01:40:21;;;;;;;85.20;34.33;;;-3.80;98.00;;;;;;5077465;28;20040;-82
2021/01/31 01:42:48;;;;;;;92.35;36.42;;;-3.90;98.00;;;;;;5060078;28;20086;-82
2021/01/31 01:45:14;;;;;;;79.18;33.20;;;-3.90;98.00;;;;;;5079531;28;20033;-82
2021/01/31 01:47:40;;;;;;;84.15;35.17;;;-3.90;98.00;;;;;;5052098;28;20346;-82
2021/01/31 01:50:36;;;;;;;79.63;34.35;;;-3.90;97.90;;;;;;5071129;28;20052;-82
2021/01/31 01:53:02;;;;;;;84.22;34.08;;;-3.90;97.90;;;;;;5078970;28;20051;-83
2021/01/31 01:55:32;;;;;;;92.70;36.00;;;-3.90;97.90;;;;;;5078965;28;20100;-82
2021/01/31 01:58:19;;;;;;;83.00;36.13;;;-3.90;97.90;;;;;;5069559;28;20048;-82
2021/01/31 02:00:46;;;;;;;87.72;34.33;;;-3.90;97.90;;;;;;5078618;28;20291;-82
2021/01/31 02:03:28;;;;;;;77.47;34.15;;;-3.90;97.90;;;;;;5064973;28;20029;-82
2021/01/31 02:06:06;;;;;;;74.10;32.35;;;-4.00;97.90;;;;;;5073738;28;20045;-82
2021/01/31 02:08:32;;;;;;;81.75;33.55;;;-4.00;97.90;;;;;;5053004;28;20047;-82
2021/01/31 02:10:58;;;;;;;84.50;35.05;;;-4.00;97.80;;;;;;5076234;28;20040;-82
2021/01/31 02:13:25;;;;;;;85.90;35.45;;;-4.00;97.80;;;;;;5081263;28;20112;-82
2021/01/31 02:15:52;;;;;;;86.50;35.55;;;-4.00;97.80;;;;;;5053059;28;20049;-82
2021/01/31 02:18:56;;;;;;;87.80;35.90;;;-4.00;97.80;;;;;;5073560;28;20033;-82
2021/01/31 02:21:50;;;;;;;84.72;36.80;;;-4.00;97.80;;;;;;5033008;28;20064;-82
2021/01/31 02:24:34;;;;;;;76.63;33.53;;;-4.00;97.90;;;;;;5058424;28;20036;-82
2021/01/31 02:27:33;;;;;;;93.28;36.25;;;-4.00;97.90;;;;;;5081724;28;20043;-82
2021/01/31 02:30:20;;;;;;;79.13;34.30;;;-4.10;97.80;;;;;;4999874;28;20077;-82
2021/01/31 02:33:20;;;;;;;81.68;33.00;;;-4.00;97.80;;;;;;4985981;28;20060;-82
2021/01/31 02:35:48;;;;;;;83.85;34.50;;;-4.00;97.80;;;;;;4983938;28;20130;-82
2021/01/31 02:38:34;;;;;;;78.85;34.20;;;-4.00;97.80;;;;;;4987552;28;20062;-82
2021/01/31 02:41:08;;;;;;;79.85;35.88;;;-4.00;97.80;;;;;;4984542;28;20321;-82
2021/01/31 02:43:42;;;;;;;80.18;35.03;;;-4.00;97.70;;;;;;4986914;28;20127;-82
2021/01/31 02:46:16;;;;;;;75.88;32.40;;;-4.00;97.70;;;;;;4999009;28;20046;-82
2021/01/31 02:48:51;;;;;;;79.40;34.60;;;-4.00;97.70;;;;;;5000507;28;20121;-82
2021/01/31 02:51:22;;;;;;;76.97;32.80;;;-4.00;97.70;;;;;;5001965;28;20053;-82
2021/01/31 02:54:08;;;;;;;77.13;35.03;;;-4.00;97.70;;;;;;5002665;28;20050;-82
2021/01/31 02:56:45;;;;;;;71.22;33.25;;;-4.00;97.60;;;;;;4983461;28;20089;-82
2021/01/31 02:59:17;;;;;;;75.22;32.17;;;-4.00;97.60;;;;;;5001713;28;20108;-83
2021/01/31 03:01:52;;;;;;;65.80;31.63;;;-4.00;97.70;;;;;;5005931;28;20042;-82
2021/01/31 03:04:27;;;;;;;67.45;32.20;;;-4.00;97.70;;;;;;4987866;28;20058;-82
2021/01/31 03:07:01;;;;;;;75.53;34.90;;;-4.00;97.60;;;;;;5041367;28;20082;-82
2021/01/31 03:09:57;;;;;;;76.55;33.08;;;-4.10;97.50;;;;;;5066100;28;20035;-82
2021/01/31 03:12:31;;;;;;;64.22;32.83;;;-4.10;97.50;;;;;;5076179;28;20515;-82
2021/01/31 03:15:05;;;;;;;70.32;32.50;;;-4.10;97.50;;;;;;5060838;28;20052;-82
2021/01/31 03:17:37;;;;;;;75.07;35.15;;;-4.10;97.50;;;;;;5068237;28;20114;-82
2021/01/31 03:20:06;;;;;;;68.05;32.25;;;-4.10;97.50;;;;;;5060649;28;20033;-82
2021/01/31 03:22:56;;;;;;;70.10;33.13;;;-4.10;97.60;;;;;;5051978;28;20051;-82
2021/01/31 03:25:39;;;;;;;70.32;32.42;;;-4.10;97.90;;;;;;5077419;28;20060;-82
2021/01/31 03:28:06;;;;;;;71.90;33.67;;;-4.10;97.60;;;;;;5078417;28;20102;-82
2021/01/31 03:30:33;;;;;;;65.70;31.23;;;-4.10;97.70;;;;;;5076633;28;20040;-82
2021/01/31 03:33:15;;;;;;;69.30;32.97;;;-4.10;98.00;;;;;;5055555;28;20056;-82
2021/01/31 03:35:46;;;;;;;71.05;32.65;;;-4.10;97.70;;;;;;5053684;28;20037;-82
2021/01/31 03:38:21;;;;;;;66.70;31.73;;;-4.10;97.60;;;;;;5060051;28;20364;-82
2021/01/31 03:40:53;;;;;;;69.93;33.28;;;-4.10;97.90;;;;;;5059619;28;20045;-82
2021/01/31 03:43:31;;;;;;;65.97;32.35;;;-4.20;97.60;;;;;;5071670;28;20488;-82
2021/01/31 03:46:10;;;;;;;68.43;32.67;;;-4.20;97.60;;;;;;5070258;28;20412;-82
2021/01/31 03:48:48;;;;;;;66.47;32.95;;;-4.10;97.60;;;;;;5054066;28;20056;-82
2021/01/31 03:51:14;;;;;;;66.13;32.47;;;-4.10;97.60;;;;;;5057022;28;20115;-82
2021/01/31 03:53:40;;;;;;;68.20;32.72;;;-4.10;97.60;;;;;;5074738;28;20100;-82
2021/01/31 03:56:09;;;;;;;62.85;31.95;;;-4.20;97.50;;;;;;5046753;28;20048;-82
2021/01/31 03:58:39;;;;;;;62.88;32.20;;;-4.10;97.50;;;;;;5077312;28;20452;-82
2021/01/31 04:01:05;;;;;;;65.72;31.42;;;-4.10;97.40;;;;;;5070562;28;20155;-82
2021/01/31 04:03:34;;;;;;;65.40;32.08;;;-4.20;97.40;;;;;;5057403;28;20403;-82
2021/01/31 04:06:14;;;;;;;66.75;32.28;;;-4.20;97.30;;;;;;5079786;28;20043;-81
2021/01/31 04:08:41;;;;;;;60.10;31.38;;;-4.20;97.30;;;;;;5053690;28;20202;-82
2021/01/31 04:11:07;;;;;;;58.63;30.88;;;-4.30;97.20;;;;;;5081060;28;20040;-81
2021/01/31 04:13:43;;;;;;;65.35;31.60;;;-4.30;97.20;;;;;;5056888;28;20049;-81
2021/01/31 04:16:09;;;;;;;67.65;32.60;;;-4.30;97.20;;;;;;5075320;28;20047;-82
2021/01/31 04:18:34;;;;;;;69.10;32.67;;;-4.40;97.10;;;;;;5055640;28;20068;-81
2021/01/31 04:21:00;;;;;;;64.70;32.75;;;-4.40;97.10;;;;;;5072657;28;20037;-81
2021/01/31 04:23:26;;;;;;;68.53;34.35;;;-4.40;97.10;;;;;;5081091;28;20040;-81
2021/01/31 04:25:52;;;;;;;61.25;31.95;;;-4.40;97.10;;;;;;5073824;28;20028;-81
2021/01/31 04:28:24;;;;;;;62.58;33.25;;;-4.40;97.10;;;;;;5064846;28;20033;-81
2021/01/31 04:30:59;;;;;;;70.25;33.45;;;-4.40;97.00;;;;;;5070528;28;20044;-81
2021/01/31 04:33:26;;;;;;;70.13;31.80;;;-4.40;97.00;;;;;;5074425;28;20036;-81
2021/01/31 04:35:53;;;;;;;63.45;32.50;;;-4.40;97.00;;;;;;5055321;28;20052;-82
2021/01/31 04:38:19;;;;;;;57.47;30.45;;;-4.40;97.10;;;;;;5056226;28;20044;-82
2021/01/31 04:40:44;;;;;;;62.80;32.08;;;-4.40;97.00;;;;;;5072198;28;20044;-82
2021/01/31 04:43:14;;;;;;;59.15;31.35;;;-4.40;97.00;;;;;;5057298;28;20036;-81
2021/01/31 04:45:41;;;;;;;64.47;32.17;;;-4.40;97.00;;;;;;5069137;28;20056;-82
2021/01/31 04:48:22;;;;;;;60.40;31.67;;;-4.40;97.10;;;;;;5064136;28;20044;-82
2021/01/31 04:50:50;;;;;;;63.25;31.73;;;-4.50;96.90;;;;;;5055853;28;20083;-81
2021/01/31 04:53:38;;;;;;;63.08;32.53;;;-4.40;97.00;;;;;;5071797;28;20053;-81
2021/01/31 04:56:17;;;;;;;61.47;32.42;;;-4.50;96.90;;;;;;5052570;28;20071;-81
2021/01/31 04:58:48;;;;;;;64.88;31.92;;;-4.40;96.90;;;;;;5054010;28;20063;-81
2021/01/31 05:01:33;;;;;;;63.83;31.38;;;-4.50;96.90;;;;;;5056824;28;20064;-82
2021/01/31 05:04:01;;;;;;;67.30;31.98;;;-4.40;97.10;;;;;;5075385;28;20116;-81
2021/01/31 05:06:34;;;;;;;62.70;32.55;;;-4.50;97.10;;;;;;5059907;28;20033;-81
2021/01/31 05:09:02;;;;;;;59.15;30.50;;;-4.40;97.00;;;;;;5070901;28;20418;-81
2021/01/31 05:11:35;;;;;;;69.07;32.20;;;-4.40;97.10;;;;;;5066556;28;20121;-81
2021/01/31 05:14:11;;;;;;;61.15;29.90;;;-4.40;97.00;;;;;;5056161;28;20113;-82
2021/01/31 05:16:37;;;;;;;64.93;33.05;;;-4.40;96.90;;;;;;5039538;28;20049;-81
2021/01/31 05:19:06;;;;;;;66.00;31.63;;;-4.40;96.90;;;;;;5057670;28;20037;-81
2021/01/31 05:21:34;;;;;;;64.95;32.90;;;-4.50;96.90;;;;;;5044784;28;20038;-81
2021/01/31 05:24:11;;;;;;;62.75;31.13;;;-4.50;96.90;;;;;;5066048;28;20036;-82
2021/01/31 05:26:50;;;;;;;55.72;30.40;;;-4.50;96.90;;;;;;5058328;28;20135;-82
2021/01/31 05:29:21;;;;;;;63.13;32.28;;;-4.50;96.80;;;;;;5080784;28;20037;-83
2021/01/31 05:32:10;;;;;;;68.78;32.40;;;-4.50;96.80;;;;;;5060160;28;20068;-82
2021/01/31 05:34:38;;;;;;;62.20;31.42;;;-4.50;96.80;;;;;;5060847;28;20128;-81
2021/01/31 05:37:07;;;;;;;65.88;31.27;;;-4.50;96.90;;;;;;5070830;28;20053;-82
2021/01/31 05:39:36;;;;;;;62.25;31.48;;;-4.60;96.80;;;;;;5081049;28;20052;-82
2021/01/31 05:42:09;;;;;;;62.70;31.70;;;-4.60;96.90;;;;;;5073453;28;20055;-81
2021/01/31 05:44:35;;;;;;;62.03;31.63;;;-4.50;97.10;;;;;;5071933;28;20025;-81
2021/01/31 05:47:14;;;;;;;64.65;32.85;;;-4.50;97.20;;;;;;5031298;28;20060;-81
2021/01/31 05:49:41;;;;;;;61.38;31.20;;;-4.50;97.10;;;;;;5052556;28;20139;-82
2021/01/31 05:52:22;;;;;;;60.28;30.83;;;-4.40;97.00;;;;;;5071840;28;20497;-81
2021/01/31 05:54:53;;;;;;;60.05;30.95;;;-4.50;96.90;;;;;;5073171;28;20101;-82
2021/01/31 05:57:29;;;;;;;65.90;32.38;;;-4.60;96.90;;;;;;5079722;28;20136;-81
2021/01/31 05:59:58;;;;;;;56.38;30.77;;;-4.60;96.80;;;;;;5071437;28;20041;-81
2021/01/31 06:02:25;;;;;;;52.58;28.23;;;-4.60;96.70;;;;;;5081068;28;20044;-82
2021/01/31 06:05:20;;;;;;;52.53;27.95;;;-4.60;96.70;;;;;;5067532;28;20064;-82
2021/01/31 06:07:56;;;;;;;57.77;30.77;;;-4.70;96.50;;;;;;5053282;28;20072;-84
2021/01/31 06:10:23;;;;;;;53.90;27.05;;;-4.70;96.50;;;;;;5046918;28;20369;-85
2021/01/31 06:12:50;;;;;;;62.60;33.75;;;-4.80;96.40;;;;;;5035581;28;20056;-84
2021/01/31 06:15:50;;;;;;;58.28;31.33;;;-4.80;96.40;;;;;;5048305;28;20040;-84
2021/01/31 06:18:29;;;;;;;59.03;29.75;;;-4.90;96.40;;;;;;5055194;28;20044;-83
2021/01/31 06:21:12;;;;;;;57.42;30.05;;;-4.90;96.40;;;;;;5033001;28;20049;-85
2021/01/31 06:23:50;;;;;;;50.92;27.02;;;-5.00;96.40;;;;;;5028397;28;20080;-85
2021/01/31 06:26:38;;;;;;;53.78;27.38;;;-5.00;96.40;;;;;;5047871;28;20028;-83
2021/01/31 06:29:10;;;;;;;58.58;29.48;;;-5.00;96.30;;;;;;5050269;28;20044;-83
2021/01/31 06:31:54;;;;;;;50.13;27.80;;;-5.00;96.40;;;;;;5054885;28;20052;-83
2021/01/31 06:34:20;;;;;;;55.13;28.10;;;-5.00;96.50;;;;;;5065657;28;20096;-82
2021/01/31 06:37:31;;;;;;;60.53;30.67;;;-5.00;96.40;;;;;;5059675;28;20064;-83
2021/01/31 06:40:13;;;;;;;58.90;29.90;;;-5.10;96.30;;;;;;5042429;28;20118;-83
2021/01/31 06:42:48;;;;;;;59.28;31.73;;;-5.10;96.30;;;;;;5052561;28;20050;-83
2021/01/31 06:45:33;;;;;;;;;;;-5.10;96.30;;;;;;5044551;28;20619;-84
2021/01/31 06:48:13;;;;;;;56.70;30.85;;;-5.10;96.60;;;;;;5055169;28;19935;-83
2021/01/31 06:51:04;;;;;;;56.58;29.73;;;-5.10;96.60;;;;;;5065228;28;20068;-83
2021/01/31 06:54:08;;;;;;;58.88;31.02;;;-5.10;96.50;;;;;;5071859;28;20067;-83
2021/01/31 06:56:37;;;;;;;60.55;29.77;;;-5.10;96.50;;;;;;5072839;28;20049;-83
2021/01/31 06:59:37;;;;;;;59.40;30.60;;;-5.10;96.50;;;;;;5063152;28;20052;-83
2021/01/31 07:02:18;;;;;;;60.70;31.02;;;-5.10;96.60;;;;;;5056036;28;20059;-83
2021/01/31 07:05:13;;;;;;;63.40;31.88;;;-5.10;96.80;;;;;;5032572;28;20072;-84
2021/01/31 07:07:57;;;;;;;62.00;29.55;;;-5.10;96.80;;;;;;4952022;29;20055;-83
2021/01/31 07:10:38;;;;;;;66.40;31.27;;;-5.10;96.70;;;;;;4944222;29;20476;-83
2021/01/31 07:13:03;;;;;;;65.00;30.70;;;-5.10;96.60;;;;;;4945232;29;20090;-83
2021/01/31 07:15:52;;;;;;;69.25;33.70;;;-5.10;96.60;;;;;;4950889;29;20039;-83
2021/01/31 07:18:22;;;;;;;67.20;33.88;;;-5.10;96.40;;;;;;4949381;29;20052;-84
2021/01/31 07:20:53;;;;;;;68.00;32.03;;;-5.20;96.50;;;;;;4949294;29;20047;-85
2021/01/31 07:23:27;;;;;;;66.22;32.00;;;-5.20;96.50;;;;;;4956155;29;20131;-84
2021/01/31 07:25:57;;;;;;;67.53;34.55;;;-5.10;96.80;;;;;;4933726;29;20079;-86
2021/01/31 07:28:30;;;;;;;73.05;33.58;;;-5.10;97.00;;;;;;4933528;29;20095;-84
2021/01/31 07:31:29;;;;;;;67.15;33.83;;;-5.00;97.10;;;;;;4947217;29;20055;-84
2021/01/31 07:34:08;;;;;;;71.88;33.78;;;-4.90;97.10;;;;;;4944373;29;20046;-85
2021/01/31 07:36:50;;;;;;;66.95;33.33;;;-4.90;97.10;;;;;;4933908;29;20103;-85
2021/01/31 07:39:24;;;;;;;72.07;34.53;;;-4.90;97.00;;;;;;4951692;29;20506;-85
2021/01/31 07:41:54;;;;;;;64.25;33.10;;;-4.80;97.00;;;;;;4916885;29;20559;-86
2021/01/31 07:44:26;;;;;;;63.13;32.55;;;-4.90;96.90;;;;;;4989848;28;20385;-85
2021/01/31 07:47:01;;;;;;;73.20;36.63;;;-4.90;96.80;;;;;;5023228;28;20061;-85
2021/01/31 07:49:47;;;;;;;65.72;33.70;;;-4.80;96.80;;;;;;5029486;28;20048;-85
2021/01/31 07:52:13;;;;;;;66.82;33.03;;;-4.80;96.70;;;;;;5048850;28;20052;-85
2021/01/31 07:54:39;;;;;;;66.35;34.30;;;-4.80;96.60;;;;;;5040349;28;20033;-85
2021/01/31 07:57:19;;;;;;;65.60;34.85;;;-4.80;96.90;;;;;;5043628;28;20338;-84
2021/01/31 07:59:45;;;;;;;64.70;32.58;;;-4.60;96.90;;;;;;5032813;28;20506;-85
2021/01/31 08:02:40;;;;;;;71.47;33.50;;;-4.60;96.90;;;;;;5034306;28;20097;-85
2021/01/31 08:05:10;;;;;;;67.78;34.47;;;-4.60;96.80;;;;;;5046321;28;20462;-85
2021/01/31 08:08:01;;;;;;;68.60;34.60;;;-4.50;96.90;;;;;;5048334;28;20052;-85
2021/01/31 08:10:39;;;;;;;71.72;35.17;;;-4.50;96.80;;;;;;5052025;28;20059;-85
2021/01/31 08:13:10;;;;;;;70.18;35.13;;;-4.40;96.70;;;;;;5031546;28;20044;-85
2021/01/31 08:15:39;;;;;;;73.38;35.05;;;-4.30;96.70;;;;;;5033726;28;20469;-85
2021/01/31 08:18:05;;;;;;;76.22;35.97;;;-4.30;96.60;;;;;;5046747;28;20063;-85
2021/01/31 08:20:38;;;;;;;66.40;35.90;;;-4.20;96.60;;;;;;5050103;28;20036;-85
2021/01/31 08:23:23;;;;;;;73.85;36.10;;;-4.20;96.60;;;;;;5035696;28;20048;-85
2021/01/31 08:26:01;;;;;;;70.50;36.92;;;-4.10;96.60;;;;;;5071701;28;20048;-84
2021/01/31 08:28:31;;;;;;;71.93;36.08;;;-4.00;96.70;;;;;;5046375;28;20107;-83
2021/01/31 08:31:03;;;;;;;71.97;36.63;;;-4.00;96.80;;;;;;5046651;28;20048;-83
2021/01/31 08:33:29;;;;;;;66.45;35.05;;;-3.90;96.70;;;;;;5058550;28;20703;-83
2021/01/31 08:35:58;;;;;;;65.60;35.13;;;-3.80;96.80;;;;;;5051777;28;20048;-84
2021/01/31 08:38:28;;;;;;;64.38;35.40;;;-3.70;96.90;;;;;;5050593;28;20132;-83
2021/01/31 08:41:03;;;;;;;67.78;35.42;;;-3.60;96.90;;;;;;5065869;28;20056;-83
2021/01/31 08:43:50;;;;;;;57.90;31.70;;;-3.60;96.80;;;;;;5051832;28;20063;-82
2021/01/31 08:46:27;;;;;;;67.40;34.88;;;-3.50;96.80;;;;;;5047395;28;20053;-82
2021/01/31 08:49:13;;;;;;;60.75;33.83;;;-3.50;96.80;;;;;;5051706;28;20122;-83
2021/01/31 08:51:44;;;;;;;54.85;32.42;;;-3.40;96.80;;;;;;5070605;28;20047;-83
2021/01/31 08:54:21;;;;;;;56.17;32.13;;;-3.40;96.80;;;;;;5044379;28;20122;-83
2021/01/31 08:57:02;;;;;;;55.60;31.23;;;-3.30;96.80;;;;;;5060523;28;20535;-83
2021/01/31 08:59:33;;;;;;;59.25;32.10;;;-3.20;96.80;;;;;;5044237;28;20045;-83
2021/01/31 09:02:05;;;;;;;56.30;31.98;;;-3.20;96.80;;;;;;5053315;28;20144;-83
2021/01/31 09:04:32;;;;;;;58.95;33.10;;;-3.10;96.80;;;;;;5024099;28;20067;-83
2021/01/31 09:07:02;;;;;;;63.85;35.60;;;-3.10;96.80;;;;;;5059330;28;20447;-85
2021/01/31 09:09:34;;;;;;;51.92;29.60;;;-3.00;96.80;;;;;;5048115;28;20362;-85
2021/01/31 09:12:06;;;;;;;54.80;32.53;;;-2.90;96.80;;;;;;5021586;28;20041;-82
2021/01/31 09:14:38;;;;;;;53.95;31.67;;;-2.90;96.80;;;;;;5034495;28;20033;-83
2021/01/31 09:17:06;;;;;;;51.65;30.33;;;-2.80;96.80;;;;;;5052416;28;20161;-83
2021/01/31 09:19:33;;;;;;;52.03;32.05;;;-2.70;96.80;;;;;;5026316;28;20129;-81
2021/01/31 09:22:08;;;;;;;48.97;30.85;;;-2.70;96.80;;;;;;5064447;28;20068;-83
2021/01/31 09:24:37;;;;;;;54.78;31.15;;;-2.60;96.70;;;;;;5030184;28;20366;-84
2021/01/31 09:27:06;;;;;;;54.10;32.33;;;-2.60;96.80;;;;;;5038265;28;20056;-83
2021/01/31 09:29:34;;;;;;;53.92;30.75;;;-2.60;96.80;;;;;;5053479;28;20090;-84
2021/01/31 09:32:37;;;;;;;51.80;31.45;;;-2.50;96.80;;;;;;5028937;28;20056;-83
2021/01/31 09:35:07;;;;;;;50.22;30.00;;;-2.40;96.90;;;;;;5029384;28;20132;-84
2021/01/31 09:37:34;;;;;;;50.10;29.60;;;-2.40;96.90;;;;;;5033322;28;20081;-84
2021/01/31 09:40:03;;;;;;;41.90;27.88;;;-2.30;96.80;;;;;;5047027;28;20066;-81
2021/01/31 09:42:32;;;;;;;44.58;27.63;;;-2.20;96.80;;;;;;5065557;28;20530;-80
2021/01/31 09:45:02;;;;;;;44.15;28.05;;;-2.20;96.70;;;;;;5058713;28;20132;-81
2021/01/31 09:47:28;;;;;;;41.20;26.25;;;-2.10;96.70;;;;;;5038329;28;20086;-81
2021/01/31 09:49:58;;;;;;;37.75;24.45;;;-2.10;96.60;;;;;;5072392;28;20094;-79
2021/01/31 09:52:24;;;;;;;39.53;24.00;;;-2.00;96.60;;;;;;5055318;28;20040;-80
2021/01/31 09:54:50;;;;;;;33.22;22.35;;;-2.00;96.60;;;;;;5033017;28;20385;-81
2021/01/31 09:57:19;;;;;;;36.90;23.67;;;-1.90;96.50;;;;;;5045852;28;20056;-81
2021/01/31 09:59:46;;;;;;;33.63;22.98;;;-1.80;96.80;;;;;;5056114;28;20052;-81
2021/01/31 10:02:22;;;;;;;31.98;21.65;;;-1.80;96.60;;;;;;5051215;28;20102;-81
2021/01/31 10:05:00;;;;;;;29.23;19.98;;;-1.70;96.50;;;;;;5050992;28;20052;-81
2021/01/31 10:07:47;;;;;;;31.83;22.52;;;-1.60;96.60;;;;;;5047966;28;20061;-82
2021/01/31 10:10:41;;;;;;;34.50;22.92;;;-1.50;96.60;;;;;;5046052;28;20717;-83
2021/01/31 10:13:22;;;;;;;32.53;22.42;;;-1.40;96.70;;;;;;5064024;28;20539;-83
2021/01/31 10:15:57;;;;;;;31.45;21.13;;;-1.30;96.50;;;;;;5055907;28;20306;-82
2021/01/31 10:18:32;;;;;;;31.40;21.05;;;-1.30;96.30;;;;;;5041825;28;20056;-82
2021/01/31 10:21:15;;;;;;;;;;;-1.20;96.30;;;;;;5059882;28;20044;-84
2021/01/31 10:23:41;;;;;;;27.63;18.13;;;-1.20;95.70;;;;;;5031655;28;19916;-85
2021/01/31 10:26:17;;;;;;;28.35;19.55;;;-1.20;95.90;;;;;;5054267;28;20159;-84
2021/01/31 10:29:01;;;;;;;33.88;21.40;;;-1.10;95.90;;;;;;5032454;28;20041;-85
2021/01/31 10:31:35;;;;;;;27.05;18.73;;;-1.10;96.00;;;;;;5056035;28;20074;-83
2021/01/31 10:34:03;;;;;;;32.58;22.00;;;-1.00;95.90;;;;;;5055735;28;20378;-84
2021/01/31 10:36:34;;;;;;;29.40;20.33;;;-0.90;95.80;;;;;;5041675;28;20041;-81
2021/01/31 10:39:23;;;;;;;29.52;20.92;;;-0.90;96.10;;;;;;5057973;28;20098;-81
2021/01/31 10:41:49;;;;;;;28.58;19.95;;;-0.80;96.10;;;;;;5063017;28;20061;-80
2021/01/31 10:44:29;;;;;;;26.13;18.17;;;-0.80;95.70;;;;;;5050948;28;20075;-81
2021/01/31 10:46:55;;;;;;;28.65;20.92;;;-0.80;95.60;;;;;;5067343;28;20140;-82
2021/01/31 10:49:22;;;;;;;27.50;20.13;;;-0.80;95.50;;;;;;5028759;28;20132;-83
2021/01/31 10:51:48;;;;;;;28.27;20.92;;;-0.70;95.90;;;;;;5053175;28;20085;-82
2021/01/31 10:54:16;;;;;;;26.30;19.55;;;-0.70;95.80;;;;;;5038837;28;20060;-83
2021/01/31 10:56:42;;;;;;;27.48;20.27;;;-0.60;95.70;;;;;;5047519;28;20048;-83
2021/01/31 10:59:08;;;;;;;27.92;19.27;;;-0.60;95.80;;;;;;5059382;28;20044;-82
2021/01/31 11:01:35;;;;;;;27.73;19.95;;;-0.70;95.70;;;;;;5046745;28;20063;-84
2021/01/31 11:04:01;;;;;;;28.05;19.48;;;-0.60;95.50;;;;;;5048680;28;20118;-83
2021/01/31 11:06:28;;;;;;;24.45;18.00;;;-0.40;95.60;;;;;;5026560;28;20163;-83
2021/01/31 11:08:54;;;;;;;24.40;18.25;;;-0.60;95.10;;;;;;5049278;28;20036;-86
2021/01/31 11:11:21;;;;;;;21.92;15.82;;;-0.50;95.20;;;;;;5053958;28;20048;-82
2021/01/31 11:13:47;;;;;;;23.77;17.40;;;-0.50;95.50;;;;;;5057466;28;20060;-83
2021/01/31 11:16:13;;;;;;;25.58;18.60;;;-0.50;95.20;;;;;;5047821;28;20056;-85
2021/01/31 11:18:39;;;;;;;25.63;17.65;;;-0.50;95.00;;;;;;5047029;28;20044;-83
2021/01/31 11:21:05;;;;;;;24.90;17.50;;;-0.40;95.30;;;;;;5049943;28;20048;-83
2021/01/31 11:23:30;;;;;;;28.15;19.17;;;-0.40;95.10;;;;;;5072263;28;20041;-84
2021/01/31 11:25:56;;;;;;;28.27;18.70;;;-0.30;95.40;;;;;;5036354;28;20394;-85
2021/01/31 11:28:22;;;;;;;26.45;18.30;;;-0.30;95.20;;;;;;5026726;28;20044;-84
2021/01/31 11:30:48;;;;;;;24.08;16.50;;;-0.30;95.30;;;;;;5057948;28;20056;-84
2021/01/31 11:33:14;;;;;;;22.58;16.77;;;-0.10;94.90;;;;;;5034581;28;20052;-83
2021/01/31 11:35:40;;;;;;;21.52;16.23;;;-0.10;95.20;;;;;;5049569;28;20504;-84
2021/01/31 11:38:06;;;;;;;22.20;16.10;;;-0.10;94.70;;;;;;5055619;28;20037;-82
2021/01/31 11:40:32;;;;;;;24.02;17.83;;;-0.10;94.30;;;;;;5066374;28;20035;-84
2021/01/31 11:42:58;;;;;;;20.77;15.93;;;-0.20;94.20;;;;;;5048953;28;20068;-84
2021/01/31 11:45:26;;;;;;;20.95;16.40;;;-0.10;94.20;;;;;;5068705;28;20595;-82
2021/01/31 11:47:52;;;;;;;22.52;17.25;;;-0.10;94.10;;;;;;5050953;28;20122;-83
2021/01/31 11:50:19;;;;;;;24.92;17.25;;;-0.10;94.40;;;;;;5064372;28;20040;-83
2021/01/31 11:52:45;;;;;;;21.60;16.95;;;0.00;94.20;;;;;;5046620;28;20064;-84
2021/01/31 11:55:12;;;;;;;24.23;17.90;;;-0.10;94.10;;;;;;5055974;28;20408;-85
2021/01/31 11:57:38;;;;;;;19.45;15.50;;;0.00;94.50;;;;;;5070018;28;20116;-85
2021/01/31 12:00:06;;;;;;;21.92;15.57;;;0.00;94.10;;;;;;5046720;28;20053;-85
2021/01/31 12:02:35;;;;;;;18.85;14.88;;;0.10;94.00;;;;;;5070161;28;20449;-84
2021/01/31 12:05:01;;;;;;;19.00;14.10;;;0.10;93.70;;;;;;5044894;28;20059;-83
2021/01/31 12:07:27;;;;;;;20.05;15.00;;;0.00;93.50;;;;;;5067571;28;20067;-82
2021/01/31 12:09:53;;;;;;;20.63;15.60;;;0.00;93.40;;;;;;5049935;28;20068;-84
2021/01/31 12:12:19;;;;;;;17.65;14.25;;;0.10;93.80;;;;;;5051937;28;20040;-84
2021/01/31 12:14:45;;;;;;;18.48;14.25;;;0.00;92.90;;;;;;5045813;28;20274;-84
2021/01/31 12:17:11;;;;;;;20.38;14.85;;;0.00;93.30;;;;;;5052760;28;20041;-85
2021/01/31 12:19:43;;;;;;;17.88;13.57;;;0.00;93.50;;;;;;5042629;28;20062;-82
2021/01/31 12:22:10;;;;;;;18.13;13.23;;;0.00;93.80;;;;;;5060070;28;20036;-83
2021/01/31 12:24:36;;;;;;;18.17;13.07;;;0.00;93.50;;;;;;5080523;28;20044;-81
2021/01/31 12:27:04;;;;;;;17.10;13.25;;;0.00;93.70;;;;;;5066995;28;20062;-80
2021/01/31 12:29:33;;;;;;;18.33;14.20;;;0.10;93.20;;;;;;5051453;28;20557;-82
2021/01/31 12:31:59;;;;;;;18.05;13.60;;;0.10;93.40;;;;;;5073132;28;20040;-80
2021/01/31 12:34:25;;;;;;;18.10;14.25;;;0.20;93.30;;;;;;5052688;28;20040;-81
2021/01/31 12:36:51;;;;;;;15.38;11.80;;;0.30;93.70;;;;;;5059698;28;20044;-81
2021/01/31 12:39:17;;;;;;;16.27;11.65;;;0.40;92.90;;;;;;5045783;28;20032;-81
2021/01/31 12:41:42;;;;;;;17.83;12.90;;;0.40;92.30;;;;;;5062270;28;20039;-81
2021/01/31 12:44:11;;;;;;;19.45;13.73;;;0.40;92.40;;;;;;5053207;28;20039;-81
2021/01/31 12:46:38;;;;;;;17.55;13.48;;;0.50;92.70;;;;;;5064180;28;20111;-83
2021/01/31 12:49:03;;;;;;;17.70;13.18;;;0.50;92.70;;;;;;5051279;28;20059;-81
2021/01/31 12:51:29;;;;;;;16.75;13.35;;;0.50;93.30;;;;;;5034106;28;20040;-79
2021/01/31 12:53:55;;;;;;;18.40;13.95;;;0.50;93.00;;;;;;5072835;28;20548;-81
2021/01/31 12:56:21;;;;;;;17.00;13.05;;;0.50;93.90;;;;;;5047145;28;20106;-83